DTTL

Kelibia Airport

Kelibia, Tunisia
METAR DTTL 180800Z 25004KT 9999 SCT020 09/06 Q1023
Observed Flight Rules
Dec-18 @ 08:00 UTC (55 minutes ago) Visual Flight Rules
Wind Visibility Clouds
250° at 4 knots 10,000+ meters
  • Scattered at 2,000' AGL
Temperatures Readings
Current 9°C / 48°F
Dewpoint 6°C / 43°F
Humidity 82%
Altimeter 30.21" Hg
Pressure 1023 hPa
Elevation 30
METAR DTTL 180800Z 25004KT 9999 SCT020 09/06 Q1023
Observed Flight Rules
Dec-18 @ 08:00 UTC
(55 minutes ago)
VFR
Wind Visibility
250° at 4 knots 10,000+ meters
Clouds
  • Scattered at 2,000' AGL
Temperature Dewpoint
9°C / 48°F 6°C / 43°F
Humidity Altimeter Pressure
82% 30.21" Hg 1023 hPa